This is the latest recevied weather packets stored in our database for station/object KC9YTT-13. If no packets are shown the sender has not sent any weather packets the latest 10 day(s).
| Time | Temp. | Humidity | Pressure | Rain* | Wind** | Luminosity | Snow |
|---|---|---|---|---|---|---|---|
| 1778079558 | 11.67° C | 58% | 1012.3 hPa | 0 mm | - | - | - |
| 1778075949 | 10.56° C | 58% | 1012.2 hPa | 0 mm | - | - | - |
| 1778074144 | 9.44° C | 58% | 1012.4 hPa | 0 mm | - | - | - |
| 1778069333 | 7.22° C | 58% | 1010.9 hPa | 0 mm | - | - | - |
| 1778066927 | 7.22° C | 58% | 1010.2 hPa | 0 mm | - | - | - |
| 1778066326 | 7.22° C | 58% | 1010 hPa | 0 mm | - | - | - |
| 1778065724 | 7.22° C | 58% | 1009.6 hPa | 0 mm | - | - | - |
| 1778062717 | 7.22° C | 58% | 1009.5 hPa | 0 mm | - | - | - |
| 1778061514 | 7.22° C | 58% | 1009.3 hPa | 0 mm | - | - | - |
| 1778060913 | 7.78° C | 58% | 1009.7 hPa | 0 mm | - | - | - |
| 1778057906 | 8.33° C | 58% | 1009 hPa | 0 mm | - | - | - |
| 1778056102 | 7.78° C | 63% | 1009 hPa | 0 mm | - | - | - |
| 1778051892 | 8.33° C | 69% | 1008.6 hPa | 0 mm | - | - | - |
| 1778050689 | 7.78° C | 69% | 1008.4 hPa | 0 mm | - | - | - |
| 1778049486 | 8.33° C | 69% | 1008.4 hPa | 0 mm | - | - | - |
| 1778046480 | 9.44° C | 59% | 1008.3 hPa | 0 mm | - | - | - |
| 1778045878 | 9.44° C | 59% | 1008.2 hPa | 0 mm | - | - | - |
| 1777996563 | 13.89° C | 55% | 1008.2 hPa | 0 mm | - | - | - |
| 1777995961 | 14.44° C | 55% | 1007.9 hPa | 0 mm | - | - | - |
| 1777995360 | 13.33° C | 56% | 1007.8 hPa | 0 mm | - | - | - |
| 1777994157 | 12.22° C | 58% | 1007.5 hPa | 0 mm | - | - | - |
| 1777991150 | 12.22° C | 62% | 1007.3 hPa | 0 mm | - | - | - |
| 1777990549 | 10.56° C | 65% | 1007.2 hPa | 0 mm | - | - | - |
| 1777986339 | 8.33° C | 77% | 1007.8 hPa | 0.25 mm | - | - | - |
| 1777977919 | 11.11° C | 58% | 1007.1 hPa | 0 mm | - | - | - |
* Rain latest hour (hover to see other rain measurements)
** Current wind speed in m/s (hover to see current wind gust speed)